ADDS METAR Data INFO
IDs: Format: Raw Decoded Include TAF

Data at: 0306 UTC 21 Oct 2017

KOCW 210245Z AUTO 00000KT 10SM CLR 13/12 A3024 RMK AO2 T01300120
KOCW 210225Z AUTO 00000KT 10SM CLR 14/13 A3024 RMK AO2 T01400128
KOCW 210205Z AUTO 00000KT 10SM CLR 14/13 A3024 RMK AO2 T01410127
KOCW 210145Z AUTO 00000KT 10SM CLR 15/13 A3023 RMK AO2 T01510131
KOCW 210125Z AUTO 00000KT 10SM CLR 15/13 A3023 RMK AO2 T01540133
KOCW 210105Z AUTO 00000KT 10SM CLR 15/13 A3023 RMK AO2 T01500133
KOCW 210045Z AUTO 00000KT 10SM CLR 16/14 A3022 RMK AO2 T01610139
KOCW 210025Z AUTO 00000KT 10SM CLR 16/14 A3022 RMK AO2 T01590140
KOCW 210005Z AUTO 00000KT 10SM CLR 16/14 A3021 RMK AO2 T01640143
KOCW 202345Z AUTO 00000KT 10SM CLR 17/14 A3021 RMK AO2 T01720141
KOCW 202325Z AUTO 00000KT 10SM CLR 18/14 A3020 RMK AO2 T01750139
KOCW 202305Z AUTO 00000KT 10SM CLR 18/14 A3020 RMK AO2 T01790139
KOCW 202245Z AUTO 00000KT 10SM CLR 18/14 A3019 RMK AO2 T01840142
KOCW 202225Z AUTO 00000KT 10SM CLR 20/14 A3018 RMK AO2 T01990139
KOCW 202205Z AUTO 00000KT 10SM CLR 22/13 A3018 RMK AO2 T02200129
KOCW 202145Z AUTO 00000KT 10SM CLR 23/12 A3018 RMK AO2 T02310124
KOCW 202125Z AUTO 00000KT 10SM CLR 25/11 A3018 RMK AO2 T02460114
KOCW 202105Z AUTO 01003KT 10SM CLR 25/11 A3018 RMK AO2 T02510108
KOCW 202045Z AUTO 36004KT 10SM CLR 25/10 A3018 RMK AO2 T02540098
KOCW 202025Z AUTO 32004KT 10SM CLR 26/10 A3018 RMK AO2 T02580100
KOCW 202005Z AUTO 00000KT 10SM CLR 26/09 A3018 RMK AO2 T02570090
KOCW 201945Z AUTO 33004KT 10SM CLR 26/09 A3018 RMK AO2 T02580091
KOCW 201925Z AUTO 33003KT 10SM CLR 26/10 A3018 RMK AO2 T02570097
KOCW 201905Z AUTO 34004KT 10SM CLR 26/11 A3018 RMK AO2 T02600105
KOCW 201845Z AUTO 34003KT 10SM CLR 26/10 A3019 RMK AO2 T02560096
KOCW 201825Z AUTO 28004KT 10SM CLR 26/11 A3019 RMK AO2 T02570111
KOCW 201805Z AUTO 28004KT 10SM CLR 26/11 A3020 RMK AO2 T02550110
KOCW 201745Z AUTO 34003KT 10SM CLR 25/10 A3020 RMK AO2 T02520103
KOCW 201725Z AUTO 00000KT 10SM CLR 24/11 A3021 RMK AO2 T02440111
KOCW 201705Z AUTO 30004KT 10SM CLR 24/11 A3022 RMK AO2 T02440111
KOCW 201645Z AUTO 31004KT 10SM CLR 24/11 A3023 RMK AO2 T02420114
KOCW 201625Z AUTO 22003KT 10SM CLR 23/11 A3024 RMK AO2 T02310108
KOCW 201605Z AUTO 23003KT 10SM CLR 23/10 A3024 RMK AO2 T02290099
KOCW 201545Z AUTO 26003KT 10SM CLR 22/11 A3025 RMK AO2 T02210106
KOCW 201525Z AUTO 23003KT 10SM CLR 21/11 A3025 RMK AO2 T02120105
KOCW 201505Z AUTO 00000KT 10SM CLR 21/11 A3025 RMK AO2 T02060110
KOCW 201445Z AUTO 00000KT 10SM CLR 19/11 A3026 RMK AO2 T01940108
KOCW 201425Z AUTO 00000KT 10SM CLR 18/10 A3026 RMK AO2 T01840102
KOCW 201405Z AUTO 32003KT 10SM CLR 18/11 A3027 RMK AO2 T01780105
KOCW 201345Z AUTO 29003KT 10SM CLR 17/11 A3026 RMK AO2 T01700112
KOCW 201325Z AUTO 00000KT 10SM CLR 16/12 A3026 RMK AO2 T01600121
KOCW 201305Z AUTO 00000KT 10SM CLR 15/13 A3026 RMK AO2 T01460129
KOCW 201245Z AUTO 00000KT 10SM CLR 13/12 A3025 RMK AO2 T01270123
KOCW 201225Z AUTO 00000KT 10SM CLR 12/11 A3024 RMK AO2 T01160111
KOCW 201205Z AUTO 00000KT 4SM BR CLR 10/10 A3024 RMK AO2 T01020098
KOCW 201145Z AUTO 00000KT 1/2SM FG VV005 10/10 A3024 RMK AO2 VIS 1/4V5 T01020098
KOCW 201125Z AUTO 00000KT 1 1/2SM BR SCT002 10/10 A3024 RMK AO2 VIS 1/2V5 T01000096
KOCW 201105Z AUTO 00000KT 1SM BR SCT002 10/10 A3022 RMK AO2 T01000096
KOCW 201045Z AUTO 00000KT 10SM CLR 10/10 A3022 RMK AO2 T01020098
KOCW 201025Z AUTO 00000KT 7SM CLR 10/10 A3022 RMK AO2 T01010096
KOCW 201005Z AUTO 00000KT 10SM CLR 10/10 A3022 RMK AO2 T01000095
KOCW 200945Z AUTO 00000KT 1 1/4SM BR SCT003 11/10 A3021 RMK AO2 T01050100
KOCW 200925Z AUTO 00000KT 1 1/4SM BR VV007 10/10 A3021 RMK AO2 T01030100
KOCW 200905Z AUTO 00000KT 10SM CLR 11/10 A3021 RMK AO2 T01050100
KOCW 200845Z AUTO 00000KT 7SM CLR 10/10 A3021 RMK AO2 T01040100
KOCW 200825Z AUTO 00000KT 1 1/4SM BR VV007 11/11 A3021 RMK AO2 VIS 1/2V5 T01120108
KOCW 200805Z AUTO 00000KT 1 1/2SM BR VV007 11/11 A3020 RMK AO2 T01110107
KOCW 200745Z AUTO 00000KT 3SM BR CLR 11/11 A3020 RMK AO2 T01110107
KOCW 200725Z AUTO 00000KT 10SM CLR 12/11 A3021 RMK AO2 T01150110
KOCW 200705Z AUTO 00000KT 10SM CLR 12/11 A3021 RMK AO2 T01150111
KOCW 200645Z AUTO 00000KT 10SM CLR 12/11 A3021 RMK AO2 T01180113
KOCW 200625Z AUTO 00000KT 10SM CLR 12/11 A3021 RMK AO2 T01180113
KOCW 200605Z AUTO 00000KT 10SM CLR 12/12 A3021 RMK AO2 T01200115
KOCW 200545Z AUTO 00000KT 10SM CLR 12/12 A3021 RMK AO2 T01200115
KOCW 200525Z AUTO 00000KT 10SM CLR 12/12 A3021 RMK AO2 T01210116
KOCW 200505Z AUTO 00000KT 10SM CLR 12/12 A3021 RMK AO2 T01240119
KOCW 200445Z AUTO 00000KT 10SM CLR 12/12 A3021 RMK AO2 T01240119
KOCW 200425Z AUTO 00000KT 7SM CLR 13/12 A3021 RMK AO2 T01270122
KOCW 200405Z AUTO 00000KT 10SM CLR 13/13 A3021 RMK AO2 T01300125
KOCW 200345Z AUTO 00000KT 10SM CLR 13/12 A3021 RMK AO2 T01250120
KOCW 200325Z AUTO 00000KT 10SM CLR 13/13 A3021 RMK AO2 T01330125
KOCW 200305Z AUTO 00000KT 10SM CLR 13/12 A3021 RMK AO2 T01320123
KOCW 200245Z AUTO 00000KT 10SM CLR 14/13 A3021 RMK AO2 T01360127
KOCW 200225Z AUTO 00000KT 10SM CLR 13/12 A3021 RMK AO2 T01310122
KOCW 200205Z AUTO 00000KT 10SM CLR 14/13 A3021 RMK AO2 T01430131
KOCW 200145Z AUTO 00000KT 10SM CLR 15/13 A3021 RMK AO2 T01460134
KOCW 200125Z AUTO 00000KT 10SM CLR 15/14 A3021 RMK AO2 T01490135
KOCW 200105Z AUTO 00000KT 10SM CLR 15/13 A3021 RMK AO2 T01460130
KOCW 200045Z AUTO 00000KT 10SM CLR 15/14 A3021 RMK AO2 T01520135
KOCW 200025Z AUTO 00000KT 10SM CLR 16/14 A3021 RMK AO2 T01560139
KOCW 200005Z AUTO 00000KT 10SM CLR 16/14 A3020 RMK AO2 T01580137
KOCW 192345Z AUTO 00000KT 10SM CLR 17/13 A3020 RMK AO2 T01660134
KOCW 192325Z AUTO 00000KT 10SM CLR 17/14 A3020 RMK AO2 T01700137
KOCW 192305Z AUTO 00000KT 10SM CLR 18/15 A3019 RMK AO2 T01750147
KOCW 192245Z AUTO 00000KT 10SM CLR 19/15 A3019 RMK AO2 T01910146
KOCW 192225Z AUTO 00000KT 10SM CLR 20/13 A3019 RMK AO2 T02010134
KOCW 192205Z AUTO 00000KT 10SM CLR 21/13 A3019 RMK AO2 T02130129
KOCW 192145Z AUTO 00000KT 10SM CLR 23/12 A3019 RMK AO2 T02300124
KOCW 192125Z AUTO 33003KT 10SM CLR 24/11 A3019 RMK AO2 T02400112
KOCW 192105Z AUTO 33003KT 10SM CLR 24/12 A3019 RMK AO2 T02430119
KOCW 192045Z AUTO 35004KT 10SM CLR 25/12 A3019 RMK AO2 T02450116
KOCW 192025Z AUTO 30005KT 10SM CLR 25/12 A3019 RMK AO2 T02480119
KOCW 192005Z AUTO 31003KT 10SM CLR 25/12 A3019 RMK AO2 T02490115
KOCW 191945Z AUTO 36006KT 10SM CLR 25/12 A3020 RMK AO2 T02520120
KOCW 191925Z AUTO 00000KT 10SM CLR 25/12 A3020 RMK AO2 T02510115
KOCW 191905Z AUTO 27003KT 10SM CLR 25/11 A3020 RMK AO2 T02490113
KOCW 191845Z AUTO 00000KT 10SM CLR 25/11 A3020 RMK AO2 T02500109
KOCW 191825Z AUTO 35004KT 10SM CLR 25/11 A3021 RMK AO2 T02500111
KOCW 191805Z AUTO 35004KT 10SM CLR 25/11 A3022 RMK AO2 T02460108
KOCW 191745Z AUTO 24005KT 10SM CLR 25/12 A3023 RMK AO2 T02480117
KOCW 191725Z AUTO 33003KT 3SM HZ CLR 25/13 A3024 RMK AO2 T02450133
KOCW 191705Z AUTO 18003KT 10SM CLR 24/13 A3025 RMK AO2 T02410130
KOCW 191645Z AUTO 00000KT 10SM CLR 24/13 A3026 RMK AO2 T02410130
KOCW 191625Z AUTO 04003KT 10SM CLR 24/13 A3028 RMK AO2 T02420134
KOCW 191605Z AUTO 00000KT 10SM CLR 23/15 A3029 RMK AO2 T02300147
KOCW 191545Z AUTO 00000KT 10SM CLR 23/15 A3029 RMK AO2 T02300153
KOCW 191525Z AUTO 08003KT 10SM CLR 22/15 A3029 RMK AO2 T02210154